createdAt,value
2023-01-25T00:02:18.341Z,101183.06
2023-01-25T00:04:47.232Z,101177.88
2023-01-25T00:07:15.969Z,101181.16
2023-01-25T00:09:44.845Z,101180.41
2023-01-25T00:12:13.547Z,101182.22
2023-01-25T00:14:42.385Z,101177.19
2023-01-25T00:17:12.526Z,101173.81
2023-01-25T00:19:41.366Z,101183.00
2023-01-25T00:22:10.176Z,101180.41
2023-01-25T00:24:39.026Z,101181.91
2023-01-25T00:27:07.768Z,101176.13
2023-01-25T00:29:36.475Z,101177.69
2023-01-25T00:32:55.906Z,101173.41
2023-01-25T00:35:24.378Z,101169.19
2023-01-25T00:37:55.277Z,101169.94
2023-01-25T00:40:24.097Z,101176.53
2023-01-25T00:42:53.225Z,101179.06
2023-01-25T00:45:22.032Z,101172.28
2023-01-25T00:47:55.995Z,101175.66
2023-01-25T00:50:24.817Z,101171.59
2023-01-25T00:52:53.493Z,101171.59
2023-01-25T00:55:22.394Z,101174.91
2023-01-25T00:57:51.168Z,101176.63
2023-01-25T01:00:20.223Z,101182.72
2023-01-25T01:02:49.379Z,101175.53
2023-01-25T01:05:19.981Z,101164.03
2023-01-25T01:07:51.188Z,101164.91
2023-01-25T01:10:20.993Z,101159.88
2023-01-25T01:12:49.695Z,101165.88
2023-01-25T01:15:20.869Z,101161.78
2023-01-25T01:17:49.795Z,101161.78
2023-01-25T01:20:20.124Z,101165.25
2023-01-25T01:22:48.998Z,101163.22
2023-01-25T01:25:17.901Z,101154.66
2023-01-25T01:27:46.968Z,101151.94
2023-01-25T01:30:15.777Z,101155.25
2023-01-25T01:32:44.641Z,101159.28
2023-01-25T01:35:14.209Z,101155.81
2023-01-25T01:37:45.282Z,101148.41
2023-01-25T01:40:16.501Z,101149.09
2023-01-25T01:43:00.588Z,101147.13
2023-01-25T01:45:51.357Z,101137.59
2023-01-25T01:48:34.662Z,101136.03
2023-01-25T01:51:07.839Z,101143.66
2023-01-25T01:53:39.445Z,101151.31
2023-01-25T01:56:11.507Z,101146.19
2023-01-25T01:58:42.846Z,101148.50
2023-01-25T02:01:12.993Z,101146.78
2023-01-25T02:03:42.845Z,101150.25
2023-01-25T02:06:16.059Z,101153.72
2023-01-25T02:08:46.990Z,101156.50
2023-01-25T02:11:15.886Z,101147.13
2023-01-25T02:13:45.227Z,101146.38
2023-01-25T02:16:20.999Z,101147.13
2023-01-25T02:18:49.865Z,101152.34
2023-01-25T02:21:18.887Z,101150.63
2023-01-25T02:23:55.762Z,101153.53
2023-01-25T02:26:26.421Z,101150.72
2023-01-25T02:29:00.569Z,101149.78
2023-01-25T02:31:29.774Z,101149.88
2023-01-25T02:33:58.570Z,101141.38
2023-01-25T02:36:30.108Z,101149.69
2023-01-25T02:39:03.377Z,101140.31
2023-01-25T02:41:36.773Z,101146.78
2023-01-25T02:44:08.275Z,101135.78
2023-01-25T02:46:40.209Z,101141.75
2023-01-25T02:49:11.665Z,101142.03
2023-01-25T02:51:42.364Z,101134.63
2023-01-25T02:54:13.311Z,101128.91
2023-01-25T02:56:43.844Z,101128.41
2023-01-25T02:59:13.899Z,101121.47
2023-01-25T03:01:47.493Z,101119.13
2023-01-25T03:04:17.128Z,101111.59
2023-01-25T03:06:45.868Z,101107.34
2023-01-25T03:09:14.808Z,101111.78
2023-01-25T03:11:49.026Z,101103.47
2023-01-25T03:14:19.777Z,101082.81
2023-01-25T03:16:48.737Z,101098.25
2023-01-25T03:19:19.508Z,101089.75
2023-01-25T03:21:48.484Z,101088.59
2023-01-25T03:24:17.346Z,101088.72
2023-01-25T03:27:00.217Z,101074.31
2023-01-25T03:29:35.505Z,101074.13
2023-01-25T03:32:08.539Z,101084.56
2023-01-25T03:34:37.772Z,101077.59
2023-01-25T03:37:06.694Z,101082.44
2023-01-25T03:39:37.049Z,101066.91
2023-01-25T03:42:07.325Z,101051.84
2023-01-25T03:44:36.219Z,101081.72
2023-01-25T03:47:05.616Z,101072.16
2023-01-25T03:49:35.271Z,101078.03
2023-01-25T03:52:06.108Z,101073.88
2023-01-25T03:54:39.338Z,101053.75
2023-01-25T03:57:13.217Z,101079.41
2023-01-25T03:59:52.999Z,101055.44
2023-01-25T04:02:22.438Z,101057.22
2023-01-25T04:04:51.483Z,101070.63
2023-01-25T04:07:22.622Z,101058.09
2023-01-25T04:09:51.554Z,101065.50
2023-01-25T04:12:22.253Z,101069.75
2023-01-25T04:14:51.388Z,101065.31
2023-01-25T04:17:23.957Z,101073.84
2023-01-25T04:20:01.192Z,101075.00
2023-01-25T04:22:36.969Z,101074.59
2023-01-25T04:25:08.848Z,101061.88
2023-01-25T04:27:42.625Z,101086.78
2023-01-25T04:30:15.978Z,101073.66
2023-01-25T04:32:47.722Z,101095.66
2023-01-25T04:35:30.674Z,101082.53
2023-01-25T04:38:01.293Z,101093.31
2023-01-25T04:40:39.077Z,101085.59
2023-01-25T04:43:09.371Z,101087.22
2023-01-25T04:45:38.274Z,101087.16
2023-01-25T04:48:15.403Z,101091.28
2023-01-25T04:50:51.455Z,101084.34
2023-01-25T04:53:23.740Z,101095.44
2023-01-25T04:55:54.388Z,101094.59
2023-01-25T04:58:26.205Z,101101.34
2023-01-25T05:00:56.016Z,101093.72
2023-01-25T05:03:26.794Z,101059.94
2023-01-25T05:05:56.890Z,101097.38
2023-01-25T05:08:27.545Z,101091.56
2023-01-25T05:11:01.437Z,101090.81
2023-01-25T05:13:42.747Z,101090.81
2023-01-25T05:16:20.829Z,101086.56
2023-01-25T05:18:49.660Z,101090.81
2023-01-25T05:21:36.933Z,101106.47
2023-01-25T05:24:06.920Z,101098.25
2023-01-25T05:26:47.541Z,101097.78
2023-01-25T05:29:17.814Z,101099.91
2023-01-25T05:31:59.228Z,101094.69
2023-01-25T05:34:28.528Z,101102.13
2023-01-25T05:36:58.022Z,101092.41
2023-01-25T05:39:26.660Z,101094.13
2023-01-25T05:41:56.435Z,101090.53
2023-01-25T05:44:26.905Z,101086.00
2023-01-25T05:46:56.525Z,101094.53
2023-01-25T05:49:25.306Z,101085.63
2023-01-25T05:51:54.837Z,101090.84
2023-01-25T05:54:23.858Z,101090.44
2023-01-25T05:57:01.529Z,101082.63
2023-01-25T05:59:32.037Z,101093.53
2023-01-25T06:02:01.860Z,101095.44
2023-01-25T06:04:30.895Z,101093.75
2023-01-25T06:06:59.753Z,101097.00
2023-01-25T06:09:29.531Z,101093.53
2023-01-25T06:11:58.447Z,101095.06
2023-01-25T06:14:27.313Z,101093.13
2023-01-25T06:16:57.515Z,101101.44
2023-01-25T06:19:37.152Z,101102.03
2023-01-25T06:22:20.631Z,101087.81
2023-01-25T06:24:49.494Z,101110.09
2023-01-25T06:27:18.161Z,101075.53
2023-01-25T06:29:46.853Z,101106.53
2023-01-25T06:32:16.937Z,101107.22
2023-01-25T06:34:46.530Z,101110.47
2023-01-25T06:37:23.214Z,101101.19
2023-01-25T06:39:52.085Z,101114.28
2023-01-25T06:42:20.699Z,101118.88
2023-01-25T06:44:49.526Z,101109.28
2023-01-25T06:47:19.581Z,101111.63
2023-01-25T06:49:48.386Z,101104.84
2023-01-25T06:52:17.056Z,101105.81
2023-01-25T06:54:45.829Z,101107.28
2023-01-25T06:57:14.517Z,101104.13
2023-01-25T06:59:43.353Z,101105.03
2023-01-25T07:02:16.419Z,101110.13
2023-01-25T07:04:46.721Z,101115.50
2023-01-25T07:07:15.398Z,101107.00
2023-01-25T07:09:44.087Z,101109.50
2023-01-25T07:12:12.978Z,101108.94
2023-01-25T07:14:42.276Z,101111.75
2023-01-25T07:17:10.841Z,101117.28
2023-01-25T07:19:39.517Z,101107.50
2023-01-25T07:22:09.809Z,101106.63
2023-01-25T07:24:38.708Z,101110.47
2023-01-25T07:27:07.337Z,101114.31
2023-01-25T07:29:36.168Z,101103.66
2023-01-25T07:32:07.040Z,101094.66
2023-01-25T07:34:36.008Z,101098.19
2023-01-25T07:37:04.743Z,101097.88
2023-01-25T07:39:34.951Z,101097.50
2023-01-25T07:42:03.770Z,101097.53
2023-01-25T07:44:34.236Z,101095.72
2023-01-25T07:47:13.628Z,101090.44
2023-01-25T07:49:43.029Z,101088.84
2023-01-25T07:52:12.012Z,101093.81
2023-01-25T07:54:42.183Z,101091.53
2023-01-25T07:57:11.246Z,101090.22
2023-01-25T07:59:39.930Z,101092.75
2023-01-25T08:02:11.769Z,101091.34
2023-01-25T08:04:42.627Z,101099.22
2023-01-25T08:07:11.414Z,101091.09
2023-01-25T08:09:41.941Z,101089.09
2023-01-25T08:12:10.739Z,101091.16
2023-01-25T08:14:39.459Z,101097.75
2023-01-25T08:17:08.265Z,101101.13
2023-01-25T08:19:37.150Z,101109.41
2023-01-25T08:22:08.357Z,101106.94
2023-01-25T08:24:37.109Z,101100.47
2023-01-25T08:27:07.246Z,101091.78
2023-01-25T08:29:36.350Z,101091.50
2023-01-25T08:32:06.408Z,101088.88
2023-01-25T08:34:35.226Z,101095.47
2023-01-25T08:37:04.020Z,101096.28
2023-01-25T08:39:32.757Z,101090.31
2023-01-25T08:42:01.520Z,101097.94
2023-01-25T08:44:31.827Z,101097.31
2023-01-25T08:47:00.527Z,101092.31
2023-01-25T08:49:31.521Z,101087.09
2023-01-25T08:52:00.287Z,101088.75
2023-01-25T08:54:29.160Z,101081.25
2023-01-25T08:57:00.461Z,101095.91
2023-01-25T08:59:29.292Z,101091.22
2023-01-25T09:01:59.335Z,101095.19
2023-01-25T09:04:28.665Z,101088.34
2023-01-25T09:06:57.611Z,101089.47
2023-01-25T09:09:26.413Z,101091.97
2023-01-25T09:11:55.158Z,101089.75
2023-01-25T09:14:24.126Z,101089.78
2023-01-25T09:16:52.956Z,101072.97
2023-01-25T09:19:23.195Z,101081.94
2023-01-25T09:21:52.015Z,101075.28
2023-01-25T09:24:20.857Z,101082.25
2023-01-25T09:26:59.119Z,101087.13
2023-01-25T09:29:28.729Z,101081.41
2023-01-25T09:31:57.548Z,101087.63
2023-01-25T09:34:34.318Z,101079.31
2023-01-25T09:37:03.126Z,101076.66
2023-01-25T09:39:32.058Z,101079.16
2023-01-25T09:42:35.835Z,101076.53
2023-01-25T09:45:23.513Z,101080.69
2023-01-25T09:47:59.503Z,101088.00
2023-01-25T09:50:39.686Z,101069.28
2023-01-25T09:53:25.630Z,101067.69
2023-01-25T09:55:59.575Z,101063.94
2023-01-25T09:58:35.384Z,101068.19
2023-01-25T10:01:21.797Z,101067.31
2023-01-25T10:04:00.100Z,101056.91
2023-01-25T10:06:55.123Z,101060.91
2023-01-25T10:09:35.613Z,101050.59
2023-01-25T10:12:15.576Z,101050.34
2023-01-25T10:14:44.643Z,101045.06
2023-01-25T10:17:29.048Z,101039.25
2023-01-25T10:20:15.692Z,101039.78
2023-01-25T10:22:52.555Z,101038.53
2023-01-25T10:25:30.028Z,101035.75
2023-01-25T10:28:10.382Z,101031.41
2023-01-25T10:30:47.585Z,101038.72
2023-01-25T10:33:21.441Z,101028.91
2023-01-25T10:35:51.836Z,101028.31
2023-01-25T10:38:27.620Z,101021.72
2023-01-25T10:41:03.987Z,101022.06
2023-01-25T10:43:32.737Z,101011.22
2023-01-25T10:46:01.392Z,101001.41
2023-01-25T10:48:35.557Z,100995.69
2023-01-25T10:51:04.337Z,100990.66
2023-01-25T10:53:36.947Z,100959.28
2023-01-25T10:56:25.397Z,100992.06
2023-01-25T10:59:07.102Z,100976.00
2023-01-25T11:01:37.607Z,100986.31
2023-01-25T11:04:25.151Z,100974.00
2023-01-25T11:06:53.854Z,100974.00
2023-01-25T11:09:38.103Z,100965.44
2023-01-25T11:12:19.283Z,100952.06
2023-01-25T11:14:51.036Z,100951.31
2023-01-25T11:17:27.261Z,100939.66
2023-01-25T11:20:21.920Z,100936.47
2023-01-25T11:22:53.088Z,100935.00
2023-01-25T11:25:32.342Z,100928.28
2023-01-25T11:28:20.214Z,100920.59
2023-01-25T11:30:49.690Z,100923.19
2023-01-25T11:33:20.538Z,100912.44
2023-01-25T11:36:06.667Z,100919.16
2023-01-25T11:38:35.611Z,100915.56
2023-01-25T11:41:14.389Z,100908.97
2023-01-25T11:43:56.542Z,100899.59
2023-01-25T11:46:39.663Z,100885.22
2023-01-25T11:49:20.222Z,100883.38
2023-01-25T11:51:53.444Z,100883.72
2023-01-25T11:54:44.091Z,100885.38
2023-01-25T11:57:30.904Z,100882.25
2023-01-25T12:00:16.119Z,100885.53
2023-01-25T12:03:14.878Z,100872.19
2023-01-25T12:05:59.412Z,100873.81
2023-01-25T12:08:51.786Z,100862.88
2023-01-25T12:11:35.987Z,100860.47
2023-01-25T12:14:15.659Z,100856.75
2023-01-25T12:16:53.466Z,100849.06
2023-01-25T12:19:43.780Z,100839.31
2023-01-25T12:22:26.564Z,100839.31
2023-01-25T12:25:04.545Z,100840.00
2023-01-25T12:27:48.600Z,100828.47
2023-01-25T12:30:28.100Z,100830.84
2023-01-25T12:33:13.866Z,100827.03
2023-01-25T12:35:51.234Z,100819.38
2023-01-25T12:38:28.477Z,100822.53
2023-01-25T12:41:01.680Z,100819.38
2023-01-25T12:43:35.239Z,100816.31
2023-01-25T12:46:14.708Z,100817.03
2023-01-25T12:48:49.049Z,100817.03
2023-01-25T12:51:20.650Z,100816.22
2023-01-25T12:53:52.248Z,100812.47
2023-01-25T12:56:33.500Z,100808.38
2023-01-25T12:59:09.390Z,100807.59
2023-01-25T13:01:46.453Z,100809.00
2023-01-25T13:04:31.645Z,100800.84
2023-01-25T13:07:10.110Z,100803.59
2023-01-25T13:09:49.659Z,100803.03
2023-01-25T13:12:18.297Z,100797.97
2023-01-25T13:14:47.009Z,100796.97
2023-01-25T13:17:32.571Z,100796.66
2023-01-25T13:20:02.576Z,100792.66
2023-01-25T13:22:59.094Z,100786.69
2023-01-25T13:25:28.865Z,100780.53
2023-01-25T13:28:12.198Z,100783.84
2023-01-25T13:30:53.592Z,100782.25
2023-01-25T13:33:37.374Z,100788.09
2023-01-25T13:36:27.789Z,100783.13
2023-01-25T13:38:56.770Z,100789.03
2023-01-25T13:41:25.409Z,100772.06
2023-01-25T13:44:28.561Z,100776.22
2023-01-25T13:46:58.727Z,100776.75
2023-01-25T13:49:36.119Z,100776.47
2023-01-25T13:52:05.972Z,100767.81
2023-01-25T13:54:35.220Z,100774.56
2023-01-25T13:57:13.568Z,100771.44
2023-01-25T13:59:43.648Z,100779.59
2023-01-25T14:02:20.007Z,100772.69
2023-01-25T14:04:52.453Z,100765.91
2023-01-25T14:07:26.256Z,100770.63
2023-01-25T14:09:55.186Z,100759.63
2023-01-25T14:12:35.888Z,100761.34
2023-01-25T14:15:21.347Z,100766.38
2023-01-25T14:18:05.913Z,100754.50
2023-01-25T14:20:36.539Z,100756.78
2023-01-25T14:23:08.617Z,100721.78
2023-01-25T14:25:41.717Z,100748.53
2023-01-25T14:28:16.050Z,100740.75
2023-01-25T14:30:45.086Z,100748.22
2023-01-25T14:33:26.878Z,100747.00
2023-01-25T14:36:24.071Z,100748.41
2023-01-25T14:38:54.539Z,100723.88
2023-01-25T14:41:29.779Z,100753.13
2023-01-25T14:44:00.788Z,100749.66
2023-01-25T14:46:32.179Z,100746.34
2023-01-25T14:49:25.661Z,100754.84
2023-01-25T14:52:05.449Z,100747.63
2023-01-25T14:54:37.597Z,100754.66
2023-01-25T14:57:08.928Z,100745.59
2023-01-25T14:59:39.160Z,100752.53
2023-01-25T15:02:25.302Z,100750.81
2023-01-25T15:05:10.999Z,100745.78
2023-01-25T15:07:48.050Z,100737.28
2023-01-25T15:10:21.039Z,100738.06
2023-01-25T15:13:12.850Z,100732.16
2023-01-25T15:15:53.703Z,100728.94
2023-01-25T15:18:45.100Z,100730.69
2023-01-25T15:21:15.578Z,100721.63
2023-01-25T15:23:47.748Z,100727.53
2023-01-25T15:26:20.960Z,100725.81
2023-01-25T15:28:50.343Z,100725.66
2023-01-25T15:31:20.458Z,100723.91
2023-01-25T15:33:49.359Z,100728.81
2023-01-25T15:36:18.802Z,100724.47
2023-01-25T15:38:49.075Z,100728.47
2023-01-25T15:41:18.794Z,100719.22
2023-01-25T15:43:47.704Z,100729.16
2023-01-25T15:46:20.280Z,100733.31
2023-01-25T15:48:50.988Z,100726.75
2023-01-25T15:51:20.308Z,100735.06
2023-01-25T15:53:50.551Z,100731.91
2023-01-25T15:56:21.688Z,100731.91
2023-01-25T15:58:53.518Z,100733.66
2023-01-25T16:01:23.168Z,100729.56
2023-01-25T16:03:52.711Z,100727.06
2023-01-25T16:06:40.324Z,100728.63
2023-01-25T16:09:19.911Z,100722.03
2023-01-25T16:11:48.769Z,100718.75
2023-01-25T16:14:17.484Z,100717.00
2023-01-25T16:16:49.479Z,100720.38
2023-01-25T16:19:20.120Z,100718.88
2023-01-25T16:21:49.258Z,100703.56
2023-01-25T16:24:20.154Z,100708.81
2023-01-25T16:26:52.404Z,100706.41
2023-01-25T16:29:23.118Z,100705.53
2023-01-25T16:31:52.307Z,100703.97
2023-01-25T16:34:22.322Z,100704.84
2023-01-25T16:36:51.547Z,100705.53
2023-01-25T16:39:23.576Z,100698.75
2023-01-25T16:41:52.927Z,100701.38
2023-01-25T16:44:21.675Z,100693.72
2023-01-25T16:46:50.579Z,100688.63
2023-01-25T16:49:21.098Z,100692.78
2023-01-25T16:51:50.717Z,100697.06
2023-01-25T16:54:20.763Z,100696.25
2023-01-25T16:56:52.391Z,100698.75
2023-01-25T16:59:23.301Z,100693.84
2023-01-25T17:01:52.572Z,100692.31
2023-01-25T17:04:21.415Z,100689.03
2023-01-25T17:06:53.225Z,100693.19
2023-01-25T17:09:24.522Z,100694.94
2023-01-25T17:11:56.731Z,100695.00
2023-01-25T17:14:25.515Z,100694.28
2023-01-25T17:16:56.761Z,100694.38
2023-01-25T17:19:25.613Z,100681.72
2023-01-25T17:21:54.311Z,100684.16
2023-01-25T17:24:23.287Z,100683.28
2023-01-25T17:26:53.270Z,100686.69
2023-01-25T17:29:23.475Z,100682.44
2023-01-25T17:31:52.689Z,100679.13
2023-01-25T17:34:22.184Z,100668.91
2023-01-25T17:36:51.854Z,100670.72
2023-01-25T17:39:21.035Z,100673.94
2023-01-25T17:41:51.676Z,100670.31
2023-01-25T17:44:24.807Z,100678.03
2023-01-25T17:46:54.371Z,100676.13
2023-01-25T17:49:24.938Z,100671.03
2023-01-25T17:51:53.870Z,100667.75
2023-01-25T17:54:22.567Z,100668.59
2023-01-25T17:56:51.350Z,100667.03
2023-01-25T17:59:20.016Z,100665.47
2023-01-25T18:01:50.705Z,100663.88
2023-01-25T18:04:20.767Z,100659.16
2023-01-25T18:06:49.441Z,100659.31
2023-01-25T18:09:18.250Z,100653.03
2023-01-25T18:11:48.102Z,100648.13
2023-01-25T18:14:17.215Z,100649.22
2023-01-25T18:16:46.238Z,100639.31
2023-01-25T18:19:16.492Z,100637.91
2023-01-25T18:21:45.602Z,100631.22
2023-01-25T18:24:27.439Z,100607.97
2023-01-25T18:27:02.511Z,100644.31
2023-01-25T18:29:46.782Z,100638.06
2023-01-25T18:32:16.067Z,100642.00
2023-01-25T18:34:48.868Z,100641.84
2023-01-25T18:37:23.490Z,100633.84
2023-01-25T18:39:54.158Z,100638.88
2023-01-25T18:42:25.357Z,100641.00
2023-01-25T18:44:54.232Z,100639.97
2023-01-25T18:47:24.264Z,100639.91
2023-01-25T18:49:54.848Z,100640.59
2023-01-25T18:52:25.258Z,100648.00
2023-01-25T18:54:54.073Z,100642.19
2023-01-25T18:57:22.783Z,100645.47
2023-01-25T18:59:51.704Z,100633.88
2023-01-25T19:02:20.822Z,100634.72
2023-01-25T19:04:49.996Z,100618.78
2023-01-25T19:07:20.172Z,100622.22
2023-01-25T19:09:49.031Z,100622.34
2023-01-25T19:12:17.796Z,100615.13
2023-01-25T19:14:46.633Z,100610.09
2023-01-25T19:17:15.317Z,100607.59
2023-01-25T19:19:44.330Z,100604.19
2023-01-25T19:22:13.040Z,100603.34
2023-01-25T19:24:43.281Z,100604.28
2023-01-25T19:27:12.301Z,100592.66
2023-01-25T19:29:41.462Z,100591.06
2023-01-25T19:32:11.054Z,100591.06
2023-01-25T19:34:40.055Z,100583.59
2023-01-25T19:37:08.825Z,100584.47
2023-01-25T19:39:37.590Z,100584.47
2023-01-25T19:42:08.103Z,100576.91
2023-01-25T19:44:36.994Z,100564.41
2023-01-25T19:47:05.790Z,100552.41
2023-01-25T19:49:34.543Z,100561.16
2023-01-25T19:52:03.618Z,100559.59
2023-01-25T19:54:32.593Z,100555.41
2023-01-25T19:57:01.344Z,100542.06
2023-01-25T19:59:31.799Z,100546.22
2023-01-25T20:02:00.581Z,100542.78
2023-01-25T20:04:29.367Z,100543.06
2023-01-25T20:06:58.132Z,100543.06
2023-01-25T20:09:28.616Z,100543.22
2023-01-25T20:11:58.939Z,100552.56
2023-01-25T20:14:27.748Z,100546.66
2023-01-25T20:16:57.937Z,100543.22
2023-01-25T20:19:27.185Z,100548.41
2023-01-25T20:21:55.964Z,100540.69
2023-01-25T20:24:24.823Z,100534.06
2023-01-25T20:26:53.615Z,100531.56
2023-01-25T20:29:24.193Z,100523.06
2023-01-25T20:31:54.728Z,100522.41
2023-01-25T20:34:25.335Z,100519.19
2023-01-25T20:36:55.489Z,100511.63
2023-01-25T20:39:24.501Z,100512.44
2023-01-25T20:41:53.799Z,100509.13
2023-01-25T20:44:23.071Z,100506.53
2023-01-25T20:46:54.492Z,100502.94
2023-01-25T20:49:24.931Z,100503.97
2023-01-25T20:51:53.951Z,100506.28
2023-01-25T20:54:22.681Z,100501.97
2023-01-25T20:56:52.488Z,100502.78
2023-01-25T20:59:21.266Z,100490.88
2023-01-25T21:01:50.975Z,100494.31
2023-01-25T21:04:19.869Z,100493.44
2023-01-25T21:06:49.992Z,100491.81
2023-01-25T21:09:18.910Z,100494.16
2023-01-25T21:11:47.655Z,100498.16
2023-01-25T21:14:16.670Z,100488.09
2023-01-25T21:16:45.459Z,100497.44
2023-01-25T21:19:14.312Z,100496.47
2023-01-25T21:21:43.033Z,100497.34
2023-01-25T21:24:13.248Z,100494.59
2023-01-25T21:26:42.373Z,100495.47
2023-01-25T21:29:11.100Z,100490.44
2023-01-25T21:31:42.860Z,100488.84
2023-01-25T21:34:12.052Z,100486.34
2023-01-25T21:36:40.714Z,100478.78
2023-01-25T21:39:09.607Z,100478.84
2023-01-25T21:41:39.729Z,100473.03
2023-01-25T21:44:18.481Z,100480.66
2023-01-25T21:47:12.554Z,100482.41
2023-01-25T21:49:46.542Z,100481.31
2023-01-25T21:52:15.571Z,100471.25
2023-01-25T21:54:44.276Z,100475.50
2023-01-25T21:57:14.469Z,100456.66
2023-01-25T21:59:43.189Z,100468.72
2023-01-25T22:02:14.583Z,100465.44
2023-01-25T22:04:43.525Z,100469.50
2023-01-25T22:07:12.893Z,100461.97
2023-01-25T22:09:41.746Z,100460.41
2023-01-25T22:12:12.517Z,100451.78
2023-01-25T22:14:42.805Z,100463.69
2023-01-25T22:17:11.588Z,100459.59
2023-01-25T22:19:40.272Z,100455.44
2023-01-25T22:22:09.122Z,100452.06
2023-01-25T22:24:37.821Z,100452.06
2023-01-25T22:27:29.460Z,100447.16
2023-01-25T22:29:59.652Z,100439.47
2023-01-25T22:32:28.502Z,100439.56
2023-01-25T22:34:57.324Z,100433.78
2023-01-25T22:37:26.143Z,100430.50
2023-01-25T22:39:58.529Z,100429.56
2023-01-25T22:42:27.467Z,100423.66
2023-01-25T22:44:56.134Z,100426.19
2023-01-25T22:47:26.395Z,100421.09
2023-01-25T22:49:55.220Z,100418.56
2023-01-25T22:52:23.890Z,100410.09
2023-01-25T22:54:53.059Z,100406.78
2023-01-25T22:57:21.792Z,100403.47
2023-01-25T22:59:50.574Z,100400.16
2023-01-25T23:02:19.294Z,100394.28
2023-01-25T23:04:49.511Z,100382.44
2023-01-25T23:07:19.561Z,100376.44
2023-01-25T23:09:51.782Z,100382.47
2023-01-25T23:12:21.125Z,100377.50
2023-01-25T23:14:54.340Z,100380.94
2023-01-25T23:17:35.421Z,100370.97
2023-01-25T23:20:06.812Z,100366.81
2023-01-25T23:22:35.659Z,100361.44
2023-01-25T23:25:05.169Z,100361.34
2023-01-25T23:27:33.983Z,100362.34
2023-01-25T23:30:02.691Z,100359.06
2023-01-25T23:32:32.001Z,100359.91
2023-01-25T23:35:01.562Z,100354.94
2023-01-25T23:37:31.436Z,100354.09
2023-01-25T23:40:00.160Z,100359.78
2023-01-25T23:42:28.842Z,100349.56
2023-01-25T23:44:57.652Z,100352.88
2023-01-25T23:47:26.387Z,100345.47
2023-01-25T23:49:55.582Z,100347.97
2023-01-25T23:52:24.221Z,100343.97
2023-01-25T23:54:54.454Z,100344.69
2023-01-25T23:57:23.442Z,100342.94
2023-01-25T23:59:52.183Z,100332.09
